Time;durP1;ratioP1;P1;durP2;ratioP2;P2;SDS_P1;SDS_P2;PMS_P1;PMS_P2;Temp;Humidity;BMP_temperature;BMP_pressure;BME280_temperature;BME280_humidity;BME280_pressure;Samples;Min_cycle;Max_cycle;Signal;HPM_P1;HPM_P2
2022/06/02 00:01:45;;;;;;;7.18;5.53;;;;;;;;;;5015407;28;20688;-66
2022/06/02 00:04:10;;;;;;;8.25;5.68;;;;;;;;;;5016081;28;20573;-66
2022/06/02 00:06:48;;;;;;;7.45;6.10;;;;;;;;;;5002520;28;20216;-65
2022/06/02 00:09:19;;;;;;;9.55;6.30;;;;;;;;;;5002040;28;20220;-65
2022/06/02 00:11:58;;;;;;;8.25;6.30;;;;;;;;;;5002230;28;20235;-66
2022/06/02 00:14:25;;;;;;;8.40;6.80;;;;;;;;;;5017569;28;20605;-66
2022/06/02 00:16:51;;;;;;;9.68;7.07;;;;;;;;;;4999277;28;20197;-66
2022/06/02 00:19:21;;;;;;;7.10;6.40;;;;;;;;;;4974320;28;20216;-65
2022/06/02 00:21:49;;;;;;;9.60;7.10;;;;;;;;;;5009106;28;20216;-65
2022/06/02 00:24:18;;;;;;;8.50;7.25;;;;;;;;;;4999138;28;20212;-65
2022/06/02 00:26:53;;;;;;;9.07;6.82;;;;;;;;;;5016966;28;20204;-65
2022/06/02 00:29:27;;;;;;;8.82;7.57;;;;;;;;;;5001680;28;20228;-65
2022/06/02 00:32:11;;;;;;;9.05;7.20;;;;;;;;;;4995843;28;20208;-64
2022/06/02 00:34:46;;;;;;;9.77;7.43;;;;;;;;;;5001503;28;20787;-64
2022/06/02 00:37:32;;;;;;;10.70;8.10;;;;;;;;;;5001494;28;20242;-65
2022/06/02 00:39:57;;;;;;;10.45;8.43;;;;;;;;;;4995424;28;20976;-65
2022/06/02 00:42:24;;;;;;;9.40;8.40;;;;;;;;;;5009224;28;20571;-65
2022/06/02 00:44:53;;;;;;;11.10;8.38;;;;;;;;;;4976901;28;20753;-65
2022/06/02 00:47:34;;;;;;;9.68;8.68;;;;;;;;;;4998787;28;20274;-64
2022/06/02 00:50:04;;;;;;;10.10;8.20;;;;;;;;;;5001828;28;20358;-65
2022/06/02 00:52:30;;;;;;;12.40;8.48;;;;;;;;;;5001295;28;20248;-64
2022/06/02 00:57:50;;;;;;;9.68;8.25;;;;;;;;;;5001265;28;20270;-64
2022/06/02 01:00:17;;;;;;;11.55;9.18;;;;;;;;;;5000566;28;20233;-65
2022/06/02 01:02:54;;;;;;;10.95;9.68;;;;;;;;;;4995927;28;21330;-64
2022/06/02 01:05:22;;;;;;;10.80;9.43;;;;;;;;;;4993274;28;20227;-65
2022/06/02 01:07:52;;;;;;;11.93;9.48;;;;;;;;;;5007840;28;20221;-65
2022/06/02 01:10:18;;;;;;;12.60;9.80;;;;;;;;;;5015356;28;20414;-65
2022/06/02 01:12:51;;;;;;;11.85;10.27;;;;;;;;;;5002081;28;20315;-65
2022/06/02 01:15:30;;;;;;;10.70;9.18;;;;;;;;;;5014758;28;20212;-65
2022/06/02 01:18:15;;;;;;;11.93;9.48;;;;;;;;;;5002218;28;20628;-65
2022/06/02 01:20:51;;;;;;;11.05;9.43;;;;;;;;;;4998020;28;20229;-65
2022/06/02 01:23:17;;;;;;;12.10;9.85;;;;;;;;;;5014799;28;20240;-65
2022/06/02 01:25:44;;;;;;;11.18;9.80;;;;;;;;;;4994485;28;20224;-65
2022/06/02 01:28:15;;;;;;;11.48;10.00;;;;;;;;;;4992796;28;20266;-65
2022/06/02 01:30:43;;;;;;;11.35;10.02;;;;;;;;;;5008708;28;20220;-65
2022/06/02 01:33:12;;;;;;;12.48;10.10;;;;;;;;;;4984354;28;20251;-65
2022/06/02 01:35:46;;;;;;;12.05;10.38;;;;;;;;;;5000868;28;20243;-65
2022/06/02 01:38:14;;;;;;;12.02;10.48;;;;;;;;;;5001553;28;20212;-65
2022/06/02 01:40:44;;;;;;;11.65;9.98;;;;;;;;;;5016373;28;20229;-65
2022/06/02 01:43:16;;;;;;;13.60;10.52;;;;;;;;;;5011492;28;20723;-65
2022/06/02 01:45:42;;;;;;;12.35;11.00;;;;;;;;;;5016611;28;20949;-65
2022/06/02 01:48:15;;;;;;;12.95;10.60;;;;;;;;;;4994804;28;20315;-65
2022/06/02 01:50:49;;;;;;;13.85;10.32;;;;;;;;;;4996962;28;20223;-65
2022/06/02 01:53:15;;;;;;;13.23;9.57;;;;;;;;;;4997195;28;20216;-65
2022/06/02 01:55:46;;;;;;;11.80;10.55;;;;;;;;;;5004548;28;20236;-65
2022/06/02 01:58:23;;;;;;;12.70;10.52;;;;;;;;;;5018915;28;20205;-65
2022/06/02 02:00:51;;;;;;;12.52;10.60;;;;;;;;;;5004877;28;20262;-65
2022/06/02 02:03:31;;;;;;;12.35;11.05;;;;;;;;;;5004252;28;20675;-65
2022/06/02 02:06:03;;;;;;;11.73;9.82;;;;;;;;;;5019180;28;20243;-65
2022/06/02 02:08:46;;;;;;;12.05;10.77;;;;;;;;;;5004459;28;20667;-65
2022/06/02 02:11:27;;;;;;;12.82;10.73;;;;;;;;;;4996411;28;20220;-65
2022/06/02 02:13:57;;;;;;;15.32;11.65;;;;;;;;;;4996927;28;20227;-65
2022/06/02 02:16:28;;;;;;;14.05;11.40;;;;;;;;;;4988298;28;20379;-65
2022/06/02 02:19:13;;;;;;;11.75;10.45;;;;;;;;;;5014900;28;20683;-65
2022/06/02 02:21:42;;;;;;;14.32;11.02;;;;;;;;;;5003738;28;20718;-65
2022/06/02 02:24:08;;;;;;;13.15;10.90;;;;;;;;;;5019132;28;20213;-65
2022/06/02 02:26:36;;;;;;;12.90;10.65;;;;;;;;;;5003813;28;20208;-65
2022/06/02 02:29:05;;;;;;;13.65;11.75;;;;;;;;;;5019126;28;20691;-64
2022/06/02 02:31:51;;;;;;;12.55;10.63;;;;;;;;;;5014219;28;20220;-65
2022/06/02 02:34:36;;;;;;;15.13;11.20;;;;;;;;;;4996080;28;20208;-65
2022/06/02 02:37:04;;;;;;;13.00;11.05;;;;;;;;;;5011024;28;20212;-64
2022/06/02 02:39:31;;;;;;;12.88;10.45;;;;;;;;;;5012556;28;20220;-65
2022/06/02 02:42:02;;;;;;;12.30;10.65;;;;;;;;;;5003745;28;21138;-65
2022/06/02 02:44:36;;;;;;;13.73;9.98;;;;;;;;;;4989280;28;20209;-64
2022/06/02 02:47:09;;;;;;;14.63;10.23;;;;;;;;;;5018282;28;20563;-64
2022/06/02 02:49:48;;;;;;;12.40;10.57;;;;;;;;;;5019019;28;20830;-64
2022/06/02 02:52:25;;;;;;;12.65;11.02;;;;;;;;;;5003444;28;20274;-64
2022/06/02 02:54:53;;;;;;;12.85;11.15;;;;;;;;;;4999879;28;20859;-64
2022/06/02 02:57:19;;;;;;;12.63;11.30;;;;;;;;;;5011050;28;20715;-64
2022/06/02 02:59:48;;;;;;;12.93;10.77;;;;;;;;;;4995437;28;20747;-64
2022/06/02 03:02:14;;;;;;;12.55;11.25;;;;;;;;;;4998679;28;20208;-64
2022/06/02 03:04:39;;;;;;;14.05;12.02;;;;;;;;;;5003464;28;20213;-64
2022/06/02 03:07:05;;;;;;;14.10;11.73;;;;;;;;;;5002443;28;20218;-64
2022/06/02 03:09:34;;;;;;;13.00;11.60;;;;;;;;;;5003551;28;20208;-64
2022/06/02 03:12:05;;;;;;;12.40;11.10;;;;;;;;;;5018644;28;20224;-65
2022/06/02 03:14:34;;;;;;;13.88;10.77;;;;;;;;;;5017764;28;20217;-64
2022/06/02 03:17:03;;;;;;;12.95;10.82;;;;;;;;;;4987410;28;20292;-64
2022/06/02 03:19:32;;;;;;;12.15;10.85;;;;;;;;;;5001944;28;20220;-64
2022/06/02 03:22:02;;;;;;;12.13;10.80;;;;;;;;;;4994635;28;20294;-64
2022/06/02 03:24:30;;;;;;;12.52;11.18;;;;;;;;;;5012104;28;20219;-65
2022/06/02 03:27:04;;;;;;;12.55;10.38;;;;;;;;;;5003419;28;20209;-65
2022/06/02 03:29:33;;;;;;;14.45;10.95;;;;;;;;;;5002184;28;20254;-65
2022/06/02 03:32:01;;;;;;;15.77;10.63;;;;;;;;;;4995584;28;20209;-65
2022/06/02 03:34:31;;;;;;;11.50;10.15;;;;;;;;;;5003008;28;20755;-65
2022/06/02 03:37:07;;;;;;;13.73;11.55;;;;;;;;;;5017518;28;20275;-65
2022/06/02 03:39:39;;;;;;;13.27;10.63;;;;;;;;;;5001375;28;20691;-65
2022/06/02 03:42:09;;;;;;;13.20;10.98;;;;;;;;;;4994872;28;20216;-65
2022/06/02 03:44:41;;;;;;;12.88;11.00;;;;;;;;;;4980652;28;20205;-65
2022/06/02 03:47:06;;;;;;;14.23;11.70;;;;;;;;;;5011141;28;20247;-65
2022/06/02 03:49:50;;;;;;;15.27;11.60;;;;;;;;;;5002761;28;20240;-65
2022/06/02 03:52:20;;;;;;;13.23;11.23;;;;;;;;;;5001980;28;20216;-65
2022/06/02 03:54:51;;;;;;;13.30;10.93;;;;;;;;;;5002455;28;20259;-65
2022/06/02 03:57:24;;;;;;;12.57;10.32;;;;;;;;;;5001688;28;20216;-65
2022/06/02 04:00:07;;;;;;;13.77;11.13;;;;;;;;;;5017712;28;20337;-65
2022/06/02 04:02:40;;;;;;;13.15;10.13;;;;;;;;;;5000419;28;20327;-65
2022/06/02 04:05:11;;;;;;;14.23;11.77;;;;;;;;;;4993741;28;20778;-64
2022/06/02 04:07:39;;;;;;;14.45;11.70;;;;;;;;;;5009731;28;20715;-65
2022/06/02 04:10:12;;;;;;;13.52;11.32;;;;;;;;;;4996401;28;20682;-64
2022/06/02 04:15:53;;;;;;;12.65;10.93;;;;;;;;;;4998290;28;20267;-64
2022/06/02 04:18:18;;;;;;;14.73;11.40;;;;;;;;;;5016153;28;20359;-64
2022/06/02 04:20:43;;;;;;;14.20;10.35;;;;;;;;;;4983579;28;20233;-64
2022/06/02 04:23:18;;;;;;;11.20;9.90;;;;;;;;;;4982562;28;20573;-64
2022/06/02 04:25:44;;;;;;;12.98;11.10;;;;;;;;;;5012669;28;20497;-63
2022/06/02 04:28:13;;;;;;;11.77;10.05;;;;;;;;;;4994154;28;20765;-63
2022/06/02 04:30:46;;;;;;;13.68;10.35;;;;;;;;;;5009241;28;20847;-64
2022/06/02 04:33:11;;;;;;;10.75;9.35;;;;;;;;;;4980933;28;20220;-64
2022/06/02 04:35:49;;;;;;;11.00;9.32;;;;;;;;;;4983001;28;20217;-63
2022/06/02 04:38:27;;;;;;;10.98;9.60;;;;;;;;;;5000875;28;20226;-64
2022/06/02 04:40:58;;;;;;;11.10;9.48;;;;;;;;;;5016664;28;20726;-64
2022/06/02 04:43:31;;;;;;;10.35;9.00;;;;;;;;;;5011195;28;20213;-63
2022/06/02 04:45:59;;;;;;;10.13;8.98;;;;;;;;;;5016199;28;20212;-64
2022/06/02 04:48:31;;;;;;;10.82;9.73;;;;;;;;;;4997236;28;20301;-64
2022/06/02 04:51:00;;;;;;;9.98;8.90;;;;;;;;;;5009042;28;20207;-64
2022/06/02 04:53:34;;;;;;;10.25;8.80;;;;;;;;;;4993167;28;20250;-64
2022/06/02 04:56:07;;;;;;;10.70;9.55;;;;;;;;;;5014071;28;20707;-63
2022/06/02 04:58:50;;;;;;;11.43;8.82;;;;;;;;;;5016957;28;20261;-65
2022/06/02 05:01:21;;;;;;;9.63;8.63;;;;;;;;;;5000208;28;20227;-65
2022/06/02 05:04:02;;;;;;;9.85;8.85;;;;;;;;;;5001646;28;20221;-65
2022/06/02 05:06:31;;;;;;;9.25;8.25;;;;;;;;;;5015724;28;20675;-61
2022/06/02 05:08:59;;;;;;;10.07;8.55;;;;;;;;;;5001629;28;20216;-63
2022/06/02 05:11:29;;;;;;;9.35;7.28;;;;;;;;;;5010550;28;20296;-65
2022/06/02 05:14:09;;;;;;;9.32;8.30;;;;;;;;;;4977924;28;20221;-63
2022/06/02 05:16:44;;;;;;;10.50;8.13;;;;;;;;;;4975132;28;20231;-63
2022/06/02 05:19:19;;;;;;;9.65;8.25;;;;;;;;;;4980815;28;20247;-64
2022/06/02 05:22:07;;;;;;;10.60;8.90;;;;;;;;;;4981386;28;20274;-64
2022/06/02 05:24:44;;;;;;;10.95;8.73;;;;;;;;;;5000990;28;20858;-64
2022/06/02 05:27:11;;;;;;;11.85;8.77;;;;;;;;;;4985515;28;20571;-63
2022/06/02 05:29:41;;;;;;;9.88;8.70;;;;;;;;;;4985838;28;20219;-63
2022/06/02 05:32:10;;;;;;;9.75;8.40;;;;;;;;;;5002195;28;20754;-63
2022/06/02 05:34:41;;;;;;;11.90;8.23;;;;;;;;;;4978565;28;20212;-63
2022/06/02 05:37:21;;;;;;;9.73;8.73;;;;;;;;;;4993576;28;20304;-65
2022/06/02 05:40:00;;;;;;;10.43;9.13;;;;;;;;;;4978084;28;20311;-64
2022/06/02 05:42:45;;;;;;;10.00;8.88;;;;;;;;;;5000381;28;20622;-65
2022/06/02 05:45:16;;;;;;;11.25;8.95;;;;;;;;;;4984760;28;20275;-64
2022/06/02 05:47:47;;;;;;;11.60;9.43;;;;;;;;;;4985741;28;20213;-65
2022/06/02 05:50:22;;;;;;;13.63;10.70;;;;;;;;;;5000492;28;20344;-65
2022/06/02 05:53:00;;;;;;;13.43;9.90;;;;;;;;;;4986695;28;20221;-64
2022/06/02 05:55:29;;;;;;;11.77;9.88;;;;;;;;;;4998091;28;20263;-65
2022/06/02 05:57:58;;;;;;;11.15;9.73;;;;;;;;;;4993610;28;20209;-64
2022/06/02 06:00:25;;;;;;;11.48;9.80;;;;;;;;;;4979951;28;20473;-65
2022/06/02 06:03:05;;;;;;;9.10;8.10;;;;;;;;;;4978112;28;20254;-65
2022/06/02 06:05:36;;;;;;;10.25;8.35;;;;;;;;;;5018828;28;20246;-64
2022/06/02 06:08:15;;;;;;;10.77;9.50;;;;;;;;;;5004122;28;20216;-64
2022/06/02 06:11:01;;;;;;;13.23;9.95;;;;;;;;;;5018424;28;20226;-65
2022/06/02 06:13:27;;;;;;;11.10;9.40;;;;;;;;;;5019304;28;20244;-65
2022/06/02 06:16:03;;;;;;;13.60;11.55;;;;;;;;;;4999396;28;20280;-64
2022/06/02 06:18:32;;;;;;;14.40;11.43;;;;;;;;;;4999795;28;20212;-64
2022/06/02 06:21:01;;;;;;;13.50;12.10;;;;;;;;;;4992563;28;20228;-64
2022/06/02 06:23:26;;;;;;;13.48;11.57;;;;;;;;;;5010895;28;20221;-64
2022/06/02 06:25:52;;;;;;;12.45;10.85;;;;;;;;;;4998312;28;20220;-64
2022/06/02 06:28:18;;;;;;;12.73;11.40;;;;;;;;;;5004074;28;20231;-64
2022/06/02 06:30:44;;;;;;;12.80;11.18;;;;;;;;;;5003618;28;20204;-64
2022/06/02 06:33:24;;;;;;;12.18;10.02;;;;;;;;;;4986661;28;20668;-64
2022/06/02 06:35:53;;;;;;;13.02;10.52;;;;;;;;;;5018296;28;20741;-64
2022/06/02 06:38:37;;;;;;;11.73;10.25;;;;;;;;;;5017882;28;20220;-64
2022/06/02 06:41:11;;;;;;;14.18;10.73;;;;;;;;;;5000888;28;20263;-64
2022/06/02 06:43:36;;;;;;;12.20;10.70;;;;;;;;;;5003977;28;20216;-64
2022/06/02 06:46:15;;;;;;;12.65;10.52;;;;;;;;;;4994867;28;20274;-63
2022/06/02 06:48:42;;;;;;;11.60;8.57;;;;;;;;;;4999137;28;20266;-65
2022/06/02 06:51:08;;;;;;;10.48;8.02;;;;;;;;;;5003419;28;20239;-64
2022/06/02 06:53:41;;;;;;;9.65;8.00;;;;;;;;;;5003437;28;20220;-65
2022/06/02 06:56:20;;;;;;;9.45;8.00;;;;;;;;;;5002914;28;20703;-64
2022/06/02 06:58:46;;;;;;;11.55;9.07;;;;;;;;;;5017496;28;20710;-64
2022/06/02 07:01:15;;;;;;;9.65;6.30;;;;;;;;;;5007300;28;20224;-64
2022/06/02 07:03:44;;;;;;;8.25;4.93;;;;;;;;;;5028029;28;20215;-64
2022/06/02 07:06:12;;;;;;;11.25;8.75;;;;;;;;;;5010943;28;20290;-64
2022/06/02 07:08:38;;;;;;;12.23;9.80;;;;;;;;;;5012044;28;20537;-64
2022/06/02 07:12:50;;;;;;;9.90;8.15;;;;;;;;;;5011431;28;20719;-63
2022/06/02 07:13:58;;;;;;;9.57;7.65;;;;;;;;;;5012411;28;20216;-64
2022/06/02 07:16:31;;;;;;;9.57;8.50;;;;;;;;;;5003255;28;20209;-64
2022/06/02 07:18:58;;;;;;;10.70;7.68;;;;;;;;;;4998088;28;20216;-64
2022/06/02 07:21:32;;;;;;;8.05;7.20;;;;;;;;;;5011774;28;20219;-64
2022/06/02 07:24:08;;;;;;;9.00;6.72;;;;;;;;;;5011620;28;20221;-64
2022/06/02 07:26:36;;;;;;;10.18;6.13;;;;;;;;;;5013000;28;20219;-64
2022/06/02 07:29:20;;;;;;;8.30;6.07;;;;;;;;;;5010689;28;20219;-63
2022/06/02 07:31:55;;;;;;;7.95;5.55;;;;;;;;;;5011526;28;20254;-63
2022/06/02 07:34:28;;;;;;;8.55;5.40;;;;;;;;;;5010377;28;20648;-63
2022/06/02 07:37:03;;;;;;;8.80;5.50;;;;;;;;;;5013134;28;20541;-63
2022/06/02 07:39:39;;;;;;;7.82;5.68;;;;;;;;;;5012778;28;20631;-64
2022/06/02 07:42:05;;;;;;;10.02;5.50;;;;;;;;;;5011319;28;20212;-63
2022/06/02 07:44:49;;;;;;;8.77;5.80;;;;;;;;;;4998917;28;20283;-63
2022/06/02 07:47:19;;;;;;;6.35;5.15;;;;;;;;;;4991891;28;20554;-64
2022/06/02 07:49:49;;;;;;;9.57;4.85;;;;;;;;;;4992694;28;20213;-64
2022/06/02 07:52:35;;;;;;;5.53;4.25;;;;;;;;;;4992503;28;20260;-64
2022/06/02 07:55:20;;;;;;;7.60;4.47;;;;;;;;;;4991066;28;20312;-64
2022/06/02 07:57:49;;;;;;;5.20;3.47;;;;;;;;;;4996715;28;20205;-64
2022/06/02 08:00:16;;;;;;;9.10;3.45;;;;;;;;;;4991095;28;20279;-64
2022/06/02 08:03:02;;;;;;;6.35;2.90;;;;;;;;;;5002923;28;20212;-64
2022/06/02 08:05:31;;;;;;;4.55;2.55;;;;;;;;;;5024683;28;20291;-64
2022/06/02 08:08:02;;;;;;;3.92;2.60;;;;;;;;;;4995421;28;20232;-65
2022/06/02 08:10:31;;;;;;;3.65;2.50;;;;;;;;;;5001503;28;20315;-63
2022/06/02 08:13:00;;;;;;;4.50;2.45;;;;;;;;;;5023882;28;20232;-64
2022/06/02 08:15:28;;;;;;;4.13;2.35;;;;;;;;;;5010346;28;20295;-64
2022/06/02 08:17:56;;;;;;;6.57;2.20;;;;;;;;;;5011158;28;20224;-63
2022/06/02 08:20:30;;;;;;;5.07;2.35;;;;;;;;;;5011562;28;20708;-64
2022/06/02 08:22:58;;;;;;;5.07;2.25;;;;;;;;;;5011063;28;20569;-63
2022/06/02 08:25:24;;;;;;;4.20;1.70;;;;;;;;;;5009793;28;20287;-63
2022/06/02 08:27:49;;;;;;;7.43;4.40;;;;;;;;;;5010488;28;20299;-63
2022/06/02 08:30:28;;;;;;;5.93;3.65;;;;;;;;;;5010580;28;20562;-63
2022/06/02 08:33:00;;;;;;;5.38;3.47;;;;;;;;;;5003307;28;20270;-64
2022/06/02 08:35:27;;;;;;;5.78;3.30;;;;;;;;;;4992077;28;20201;-64
2022/06/02 08:38:10;;;;;;;5.18;3.40;;;;;;;;;;4991854;28;20272;-63
2022/06/02 08:40:35;;;;;;;4.13;2.60;;;;;;;;;;4997213;28;20283;-64
2022/06/02 08:43:19;;;;;;;4.63;2.30;;;;;;;;;;4991379;28;20210;-63
2022/06/02 08:45:44;;;;;;;4.28;2.60;;;;;;;;;;5011210;28;20216;-64
2022/06/02 08:48:41;;;;;;;5.68;2.80;;;;;;;;;;5011670;28;20201;-64
2022/06/02 08:51:27;;;;;;;3.42;2.03;;;;;;;;;;5011015;28;20212;-63
2022/06/02 08:53:57;;;;;;;4.70;2.10;;;;;;;;;;5011621;28;20200;-64
2022/06/02 08:56:43;;;;;;;3.20;1.60;;;;;;;;;;5011395;28;20220;-63
2022/06/02 08:59:09;;;;;;;4.47;1.60;;;;;;;;;;5009758;28;20616;-63
2022/06/02 09:01:38;;;;;;;3.47;1.52;;;;;;;;;;5011305;28;20225;-63
2022/06/02 09:04:22;;;;;;;2.17;1.13;;;;;;;;;;5009758;28;20214;-63
2022/06/02 09:07:05;;;;;;;4.22;1.45;;;;;;;;;;5011058;28;20234;-63
2022/06/02 09:09:49;;;;;;;3.90;1.90;;;;;;;;;;5011116;28;20334;-63
2022/06/02 09:12:19;;;;;;;3.78;1.45;;;;;;;;;;5010750;28;20200;-64
2022/06/02 09:14:52;;;;;;;3.08;1.10;;;;;;;;;;5009323;28;20212;-63
2022/06/02 09:17:22;;;;;;;2.38;1.20;;;;;;;;;;5009905;28;20204;-63
2022/06/02 09:20:03;;;;;;;7.32;3.90;;;;;;;;;;5009358;28;20240;-63
2022/06/02 09:22:33;;;;;;;6.15;3.65;;;;;;;;;;5021901;28;20947;-62
2022/06/02 09:25:21;;;;;;;4.65;2.10;;;;;;;;;;5029860;28;20219;-62
2022/06/02 09:27:49;;;;;;;3.22;1.60;;;;;;;;;;5029185;28;20257;-63
2022/06/02 09:30:16;;;;;;;2.38;1.40;;;;;;;;;;5030680;28;20219;-62
2022/06/02 09:33:33;;;;;;;5.00;1.45;;;;;;;;;;5011262;28;20209;-62
2022/06/02 09:35:48;;;;;;;3.55;1.88;;;;;;;;;;4997422;28;20213;-63
2022/06/02 09:38:17;;;;;;;5.28;2.80;;;;;;;;;;4991476;28;20300;-63
2022/06/02 09:40:47;;;;;;;4.07;2.90;;;;;;;;;;4990901;28;20225;-63
2022/06/02 09:43:18;;;;;;;3.00;1.17;;;;;;;;;;4992571;28;20295;-64
2022/06/02 09:45:52;;;;;;;2.42;1.40;;;;;;;;;;5009641;28;20212;-63
2022/06/02 09:48:22;;;;;;;5.88;2.47;;;;;;;;;;5010183;28;20654;-63
2022/06/02 09:51:05;;;;;;;6.97;2.80;;;;;;;;;;5010992;28;20213;-63
2022/06/02 09:53:34;;;;;;;6.28;2.70;;;;;;;;;;5010660;28;20223;-63
2022/06/02 09:56:05;;;;;;;5.30;2.35;;;;;;;;;;5009980;28;20689;-62
2022/06/02 09:58:35;;;;;;;5.05;2.40;;;;;;;;;;5010894;28;20220;-63
2022/06/02 10:01:01;;;;;;;3.28;1.33;;;;;;;;;;5011051;28;20307;-62
2022/06/02 10:03:26;;;;;;;4.45;1.20;;;;;;;;;;5010238;28;20217;-63
2022/06/02 10:05:53;;;;;;;3.47;1.17;;;;;;;;;;5010986;28;20255;-62
2022/06/02 10:08:25;;;;;;;2.42;1.20;;;;;;;;;;5010521;28;20209;-63
2022/06/02 10:10:57;;;;;;;3.30;1.30;;;;;;;;;;5013136;28;20208;-63
2022/06/02 10:13:26;;;;;;;4.32;2.80;;;;;;;;;;5012811;28;20209;-63
2022/06/02 10:16:03;;;;;;;4.95;2.83;;;;;;;;;;5012503;28;20295;-63
2022/06/02 10:18:30;;;;;;;3.28;2.50;;;;;;;;;;5014104;28;20254;-63
2022/06/02 10:21:05;;;;;;;3.45;1.67;;;;;;;;;;5013794;28;20254;-63
2022/06/02 10:23:34;;;;;;;4.30;1.70;;;;;;;;;;4997497;28;20235;-63
2022/06/02 10:26:00;;;;;;;3.88;1.60;;;;;;;;;;5014636;28;20287;-63
2022/06/02 10:28:37;;;;;;;4.00;1.77;;;;;;;;;;4998068;28;20320;-63
2022/06/02 10:31:10;;;;;;;4.90;2.20;;;;;;;;;;5012656;28;20291;-63
2022/06/02 10:33:54;;;;;;;4.18;2.00;;;;;;;;;;5001045;28;20213;-62
2022/06/02 10:36:23;;;;;;;3.25;1.52;;;;;;;;;;4993729;28;20299;-63
2022/06/02 10:39:02;;;;;;;2.97;1.25;;;;;;;;;;4993890;28;20692;-63
2022/06/02 10:41:46;;;;;;;3.10;1.70;;;;;;;;;;5000429;28;20217;-63
2022/06/02 10:44:14;;;;;;;2.75;1.40;;;;;;;;;;5002630;28;20213;-63
2022/06/02 10:46:55;;;;;;;2.17;1.20;;;;;;;;;;5013816;28;20212;-63
2022/06/02 10:49:21;;;;;;;3.25;1.10;;;;;;;;;;5013475;28;20680;-63
2022/06/02 10:51:47;;;;;;;2.75;1.10;;;;;;;;;;5012915;28;20294;-63
2022/06/02 10:54:26;;;;;;;1.58;1.05;;;;;;;;;;5012882;28;20216;-63
2022/06/02 10:57:02;;;;;;;1.70;0.82;;;;;;;;;;5012487;28;20204;-63
2022/06/02 10:59:33;;;;;;;2.42;0.90;;;;;;;;;;5011686;28;20773;-63
2022/06/02 11:02:05;;;;;;;1.92;0.93;;;;;;;;;;5013651;28;20263;-63
2022/06/02 11:04:40;;;;;;;3.67;1.20;;;;;;;;;;5015034;28;20215;-64
2022/06/02 11:07:19;;;;;;;5.85;1.00;;;;;;;;;;4991337;28;20287;-64
2022/06/02 11:09:57;;;;;;;1.75;1.00;;;;;;;;;;4994122;28;20237;-64
2022/06/02 11:12:31;;;;;;;2.50;1.27;;;;;;;;;;4995653;28;20218;-65
2022/06/02 11:15:09;;;;;;;2.80;1.00;;;;;;;;;;4996310;28;20215;-65
2022/06/02 11:17:42;;;;;;;3.63;1.15;;;;;;;;;;5006871;28;20213;-65
2022/06/02 11:20:14;;;;;;;3.63;1.10;;;;;;;;;;4990454;28;20224;-64
2022/06/02 11:22:45;;;;;;;3.65;1.17;;;;;;;;;;4993878;28;20243;-64
2022/06/02 11:25:15;;;;;;;4.00;1.20;;;;;;;;;;4992145;28;20239;-63
2022/06/02 11:27:52;;;;;;;2.33;0.90;;;;;;;;;;4991569;28;20315;-64
2022/06/02 11:30:18;;;;;;;5.78;1.10;;;;;;;;;;4991567;28;20276;-64
2022/06/02 11:32:51;;;;;;;1.60;0.80;;;;;;;;;;4999271;28;20208;-65
2022/06/02 11:35:22;;;;;;;3.58;1.30;;;;;;;;;;5011619;28;20299;-64
2022/06/02 11:37:50;;;;;;;2.47;1.23;;;;;;;;;;5012855;28;20200;-64
2022/06/02 11:40:15;;;;;;;1.38;1.00;;;;;;;;;;5011386;28;20221;-64
2022/06/02 11:42:46;;;;;;;3.15;0.95;;;;;;;;;;5012654;28;20347;-64
2022/06/02 11:45:21;;;;;;;4.40;1.30;;;;;;;;;;4994623;28;20676;-63
2022/06/02 11:47:55;;;;;;;3.72;1.30;;;;;;;;;;4992417;28;20343;-63
2022/06/02 11:50:20;;;;;;;1.95;1.13;;;;;;;;;;4990831;28;20248;-63
2022/06/02 11:52:46;;;;;;;2.80;1.20;;;;;;;;;;4992903;28;20233;-64
2022/06/02 11:55:21;;;;;;;2.72;1.30;;;;;;;;;;4991549;28;20661;-63
2022/06/02 11:57:59;;;;;;;6.00;1.80;;;;;;;;;;4992967;28;20243;-63
2022/06/02 12:00:44;;;;;;;1.67;1.13;;;;;;;;;;4992319;28;20252;-63
2022/06/02 12:03:16;;;;;;;2.78;1.08;;;;;;;;;;4991270;28;20217;-63
2022/06/02 12:05:46;;;;;;;2.95;1.35;;;;;;;;;;4991207;28;20232;-64
2022/06/02 12:08:23;;;;;;;2.40;1.20;;;;;;;;;;4990726;28;20433;-64
2022/06/02 12:11:08;;;;;;;3.28;1.10;;;;;;;;;;4991555;28;20211;-65
2022/06/02 12:13:40;;;;;;;2.95;1.65;;;;;;;;;;4996210;28;20213;-63
2022/06/02 12:16:09;;;;;;;4.22;1.95;;;;;;;;;;4991172;28;20213;-63
2022/06/02 12:18:40;;;;;;;3.03;2.33;;;;;;;;;;4992577;28;20216;-64
2022/06/02 12:21:11;;;;;;;3.50;1.92;;;;;;;;;;4990330;28;20611;-63
2022/06/02 12:23:43;;;;;;;4.18;2.20;;;;;;;;;;4991946;28;20213;-64
2022/06/02 12:26:14;;;;;;;2.85;1.85;;;;;;;;;;4990697;28;20209;-63
2022/06/02 12:28:42;;;;;;;3.60;1.95;;;;;;;;;;4992284;28;20216;-64
2022/06/02 12:31:15;;;;;;;3.15;1.90;;;;;;;;;;4989810;28;20216;-63
2022/06/02 12:33:43;;;;;;;2.85;1.70;;;;;;;;;;5005284;28;20216;-63
2022/06/02 12:36:24;;;;;;;2.42;1.33;;;;;;;;;;5011466;28;20209;-62
2022/06/02 12:39:08;;;;;;;4.78;1.73;;;;;;;;;;5011624;28;20681;-64
2022/06/02 12:41:45;;;;;;;3.25;1.50;;;;;;;;;;5010359;28;20224;-63
2022/06/02 12:44:29;;;;;;;3.08;1.35;;;;;;;;;;5000025;28;20575;-63
2022/06/02 12:47:19;;;;;;;2.10;1.50;;;;;;;;;;4991811;28;20237;-64
2022/06/02 12:49:49;;;;;;;2.67;1.60;;;;;;;;;;4995352;28;20590;-63
2022/06/02 12:52:33;;;;;;;3.70;1.48;;;;;;;;;;4989652;28;20543;-63
2022/06/02 12:55:19;;;;;;;3.67;1.67;;;;;;;;;;4991879;28;20225;-63
2022/06/02 12:57:51;;;;;;;3.10;2.00;;;;;;;;;;4996544;28;20268;-63
2022/06/02 13:00:18;;;;;;;2.97;1.70;;;;;;;;;;4991394;28;20236;-63
2022/06/02 13:03:00;;;;;;;2.65;1.40;;;;;;;;;;4990878;28;20212;-64
2022/06/02 13:05:46;;;;;;;3.85;1.75;;;;;;;;;;5009360;28;20212;-65
2022/06/02 13:08:30;;;;;;;4.32;2.10;;;;;;;;;;5009249;28;20299;-63
2022/06/02 13:11:10;;;;;;;3.50;2.00;;;;;;;;;;5011498;28;20683;-63
2022/06/02 13:13:45;;;;;;;2.90;1.77;;;;;;;;;;5010449;28;20227;-63
2022/06/02 13:16:19;;;;;;;2.58;1.40;;;;;;;;;;5000234;28;20200;-63
2022/06/02 13:18:44;;;;;;;2.75;1.50;;;;;;;;;;4990568;28;20213;-63
2022/06/02 13:21:25;;;;;;;4.25;1.80;;;;;;;;;;4991150;28;20695;-63
2022/06/02 13:24:02;;;;;;;3.85;1.50;;;;;;;;;;4991798;28;20675;-63
2022/06/02 13:26:29;;;;;;;3.67;1.80;;;;;;;;;;5005392;28;20285;-63
2022/06/02 13:29:04;;;;;;;3.55;2.28;;;;;;;;;;4991497;28;20232;-63
2022/06/02 13:31:38;;;;;;;4.40;1.65;;;;;;;;;;5006845;28;20212;-62
2022/06/02 13:34:13;;;;;;;3.72;1.52;;;;;;;;;;5005700;28;20208;-63
2022/06/02 13:36:49;;;;;;;2.83;1.65;;;;;;;;;;5010109;28;20228;-62
2022/06/02 13:39:33;;;;;;;3.38;1.50;;;;;;;;;;5010521;28;20303;-63
2022/06/02 13:42:09;;;;;;;3.30;1.92;;;;;;;;;;5010194;28;20255;-63
2022/06/02 13:44:45;;;;;;;5.60;1.55;;;;;;;;;;4999109;28;20287;-63
2022/06/02 13:47:17;;;;;;;3.25;1.60;;;;;;;;;;4993216;28;20212;-63
2022/06/02 13:49:53;;;;;;;1.95;1.20;;;;;;;;;;4993396;28;20243;-63
2022/06/02 13:52:33;;;;;;;4.28;1.70;;;;;;;;;;4994633;28;20278;-63
2022/06/02 13:57:50;;;;;;;5.15;2.17;;;;;;;;;;5000835;28;20224;-63
2022/06/02 14:00:40;;;;;;;3.38;1.83;;;;;;;;;;4994432;28;20233;-63
2022/06/02 14:03:10;;;;;;;3.83;2.40;;;;;;;;;;4993749;28;20240;-63
2022/06/02 14:05:36;;;;;;;4.57;2.08;;;;;;;;;;4993848;28;20201;-62
2022/06/02 14:08:11;;;;;;;4.97;2.67;;;;;;;;;;4993715;28;20216;-63
2022/06/02 14:10:40;;;;;;;4.82;2.47;;;;;;;;;;4994918;28;20213;-63
2022/06/02 14:13:13;;;;;;;4.95;2.30;;;;;;;;;;5003056;28;20204;-63
2022/06/02 14:15:38;;;;;;;3.33;2.00;;;;;;;;;;5000706;28;20228;-63
2022/06/02 14:18:16;;;;;;;3.67;1.83;;;;;;;;;;4994362;28;20209;-63
2022/06/02 14:20:48;;;;;;;3.50;1.75;;;;;;;;;;4993569;28;20307;-62
2022/06/02 14:23:19;;;;;;;3.75;2.22;;;;;;;;;;4991839;28;20694;-62
2022/06/02 14:25:52;;;;;;;3.35;1.70;;;;;;;;;;4993318;28;20668;-62
2022/06/02 14:28:17;;;;;;;3.20;1.70;;;;;;;;;;4994514;28;20209;-62
2022/06/02 14:30:42;;;;;;;2.30;1.40;;;;;;;;;;4993924;28;20213;-63
2022/06/02 14:33:26;;;;;;;2.30;1.52;;;;;;;;;;5010984;28;20679;-62
2022/06/02 14:35:52;;;;;;;5.55;1.50;;;;;;;;;;5012583;28;20219;-62
2022/06/02 14:38:17;;;;;;;3.10;1.40;;;;;;;;;;5012546;28;20287;-63
2022/06/02 14:40:45;;;;;;;2.88;2.10;;;;;;;;;;5013945;28;20251;-62
2022/06/02 14:43:19;;;;;;;3.75;1.45;;;;;;;;;;5011091;28;20200;-62
2022/06/02 14:46:03;;;;;;;6.22;2.03;;;;;;;;;;4994597;28;20683;-62
2022/06/02 14:48:33;;;;;;;3.47;1.65;;;;;;;;;;5001067;28;20634;-62
2022/06/02 14:51:08;;;;;;;3.40;2.17;;;;;;;;;;4992017;28;20237;-62
2022/06/02 14:53:45;;;;;;;4.50;2.00;;;;;;;;;;4981795;28;20209;-61
2022/06/02 14:56:10;;;;;;;3.80;1.30;;;;;;;;;;4973661;28;20316;-62
2022/06/02 14:58:38;;;;;;;3.40;1.55;;;;;;;;;;4973911;28;20313;-63
2022/06/02 15:01:09;;;;;;;4.57;1.30;;;;;;;;;;4972768;28;20217;-62
2022/06/02 15:03:40;;;;;;;3.78;2.22;;;;;;;;;;5005036;28;20304;-62
2022/06/02 15:06:25;;;;;;;3.83;2.00;;;;;;;;;;4995626;28;20240;-61
2022/06/02 15:08:58;;;;;;;4.40;2.08;;;;;;;;;;4980261;28;20656;-63
2022/06/02 15:11:35;;;;;;;5.70;2.10;;;;;;;;;;4991842;28;20643;-63
2022/06/02 15:14:05;;;;;;;2.97;2.10;;;;;;;;;;4988514;28;20683;-63
2022/06/02 15:16:43;;;;;;;3.20;1.95;;;;;;;;;;5005594;28;20290;-63
2022/06/02 15:19:13;;;;;;;6.20;2.15;;;;;;;;;;5019768;28;20216;-63